sensor_id;sensor_type;location;lat;lon;timestamp;pressure;altitude;pressure_sealevel;temperature;humidity
40013;BME280;37387;42.672;23.334;2023-07-20T00:05:25;941.2;;;23.9;89.2
40013;BME280;37387;42.672;23.334;2023-07-20T00:06:25;941.2;;;23.8;93.7
40013;BME280;37387;42.672;23.334;2023-07-20T00:07:25;941.2;;;23.5;86.7
40013;BME280;37387;42.672;23.334;2023-07-20T00:09:26;941.2;;;23.3;98.5
40013;BME280;37387;42.672;23.334;2023-07-20T00:10:25;941.2;;;22.9;98.5
40013;BME280;37387;42.672;23.334;2023-07-20T00:11:26;941.2;;;22.6;100.0
40013;BME280;37387;42.672;23.334;2023-07-20T00:15:25;941.2;;;22.7;97.1
40013;BME280;37387;42.672;23.334;2023-07-20T00:16:25;941.2;;;22.8;97.6
40013;BME280;37387;42.672;23.334;2023-07-20T00:17:25;941.3;;;23.0;96.7
40013;BME280;37387;42.672;23.334;2023-07-20T00:20:25;941.3;;;23.1;95.9
40013;BME280;37387;42.672;23.334;2023-07-20T00:21:25;941.3;;;23.2;94.5
40013;BME280;37387;42.672;23.334;2023-07-20T00:23:25;941.3;;;23.4;94.5
40013;BME280;37387;42.672;23.334;2023-07-20T00:24:25;941.3;;;23.2;91.0
40013;BME280;37387;42.672;23.334;2023-07-20T00:25:25;941.3;;;23.1;89.8
40013;BME280;37387;42.672;23.334;2023-07-20T00:26:25;941.3;;;23.0;89.8
40013;BME280;37387;42.672;23.334;2023-07-20T00:27:25;941.4;;;23.1;93.6
40013;BME280;37387;42.672;23.334;2023-07-20T00:28:25;941.4;;;23.4;90.9
40013;BME280;37387;42.672;23.334;2023-07-20T00:32:25;941.3;;;23.3;89.7
40013;BME280;37387;42.672;23.334;2023-07-20T00:34:25;941.3;;;23.2;92.2
40013;BME280;37387;42.672;23.334;2023-07-20T00:35:25;941.3;;;23.4;92.9
40013;BME280;37387;42.672;23.334;2023-07-20T00:36:25;941.3;;;23.5;92.3
40013;BME280;37387;42.672;23.334;2023-07-20T00:41:25;941.3;;;23.6;88.6
40013;BME280;37387;42.672;23.334;2023-07-20T00:42:25;941.3;;;23.7;88.6
40013;BME280;37387;42.672;23.334;2023-07-20T00:47:25;941.2;;;23.4;92.4
40013;BME280;37387;42.672;23.334;2023-07-20T00:48:25;941.2;;;23.2;92.4
40013;BME280;37387;42.672;23.334;2023-07-20T00:49:25;941.2;;;23.1;94.8
40013;BME280;37387;42.672;23.334;2023-07-20T00:50:25;941.1;;;23.0;96.6
40013;BME280;37387;42.672;23.334;2023-07-20T00:52:25;941.2;;;22.9;99.1
40013;BME280;37387;42.672;23.334;2023-07-20T00:54:25;941.1;;;22.8;100.0
40013;BME280;37387;42.672;23.334;2023-07-20T00:55:25;941.1;;;22.7;100.0
40013;BME280;37387;42.672;23.334;2023-07-20T00:56:25;941.1;;;22.5;100.0
40013;BME280;37387;42.672;23.334;2023-07-20T00:57:25;941.0;;;22.3;100.0
40013;BME280;37387;42.672;23.334;2023-07-20T00:58:27;941.0;;;22.2;100.0
40013;BME280;37387;42.672;23.334;2023-07-20T00:59:25;941.0;;;22.3;100.0
40013;BME280;37387;42.672;23.334;2023-07-20T01:01:26;941.0;;;22.4;100.0
40013;BME280;37387;42.672;23.334;2023-07-20T01:02:25;941.0;;;22.5;100.0
40013;BME280;37387;42.672;23.334;2023-07-20T01:03:25;941.0;;;22.6;100.0
40013;BME280;37387;42.672;23.334;2023-07-20T01:04:25;941.0;;;22.7;100.0
40013;BME280;37387;42.672;23.334;2023-07-20T01:05:36;941.0;;;22.8;100.0
40013;BME280;37387;42.672;23.334;2023-07-20T01:06:26;941.0;;;22.7;100.0
40013;BME280;37387;42.672;23.334;2023-07-20T01:07:26;941.0;;;22.6;100.0
40013;BME280;37387;42.672;23.334;2023-07-20T01:08:28;941.0;;;22.5;100.0
40013;BME280;37387;42.672;23.334;2023-07-20T01:10:27;941.1;;;22.6;100.0
40013;BME280;37387;42.672;23.334;2023-07-20T01:14:25;941.2;;;22.4;100.0
40013;BME280;37387;42.672;23.334;2023-07-20T01:15:26;941.2;;;22.2;100.0
40013;BME280;37387;42.672;23.334;2023-07-20T01:16:25;941.2;;;22.1;100.0
40013;BME280;37387;42.672;23.334;2023-07-20T01:20:25;941.2;;;22.0;100.0
40013;BME280;37387;42.672;23.334;2023-07-20T01:21:27;941.1;;;21.8;100.0
40013;BME280;37387;42.672;23.334;2023-07-20T01:22:35;941.1;;;21.6;100.0
40013;BME280;37387;42.672;23.334;2023-07-20T01:23:29;941.1;;;21.5;100.0
40013;BME280;37387;42.672;23.334;2023-07-20T01:29:30;941.0;;;21.6;100.0
40013;BME280;37387;42.672;23.334;2023-07-20T01:30:30;941.0;;;21.7;100.0
40013;BME280;37387;42.672;23.334;2023-07-20T01:31:25;941.0;;;21.6;100.0
40013;BME280;37387;42.672;23.334;2023-07-20T01:32:25;941.0;;;21.7;100.0
40013;BME280;37387;42.672;23.334;2023-07-20T01:33:26;941.0;;;21.6;100.0
40013;BME280;37387;42.672;23.334;2023-07-20T01:34:25;941.1;;;21.8;100.0
40013;BME280;37387;42.672;23.334;2023-07-20T01:38:25;941.2;;;21.7;100.0
40013;BME280;37387;42.672;23.334;2023-07-20T01:42:25;941.2;;;21.6;100.0
40013;BME280;37387;42.672;23.334;2023-07-20T01:44:25;941.1;;;21.5;100.0
40013;BME280;37387;42.672;23.334;2023-07-20T01:47:25;941.1;;;21.6;100.0
40013;BME280;37387;42.672;23.334;2023-07-20T01:48:25;941.0;;;21.5;100.0
40013;BME280;37387;42.672;23.334;2023-07-20T01:52:25;941.1;;;21.4;100.0
40013;BME280;37387;42.672;23.334;2023-07-20T01:54:25;941.1;;;21.3;100.0
40013;BME280;37387;42.672;23.334;2023-07-20T01:57:25;941.1;;;21.1;100.0
40013;BME280;37387;42.672;23.334;2023-07-20T01:58:25;941.1;;;21.2;100.0
40013;BME280;37387;42.672;23.334;2023-07-20T02:01:25;941.0;;;21.3;100.0
40013;BME280;37387;42.672;23.334;2023-07-20T02:02:26;941.1;;;21.4;100.0
40013;BME280;37387;42.672;23.334;2023-07-20T02:04:25;941.0;;;21.3;100.0
40013;BME280;37387;42.672;23.334;2023-07-20T02:05:25;941.0;;;21.2;100.0
40013;BME280;37387;42.672;23.334;2023-07-20T02:06:25;941.0;;;21.1;100.0
40013;BME280;37387;42.672;23.334;2023-07-20T02:07:25;941.0;;;21.0;100.0
40013;BME280;37387;42.672;23.334;2023-07-20T02:09:25;941.0;;;21.1;100.0
40013;BME280;37387;42.672;23.334;2023-07-20T02:10:25;941.0;;;21.2;100.0
40013;BME280;37387;42.672;23.334;2023-07-20T02:11:25;941.0;;;21.1;100.0
40013;BME280;37387;42.672;23.334;2023-07-20T02:12:25;941.0;;;21.2;100.0
40013;BME280;37387;42.672;23.334;2023-07-20T02:14:25;941.0;;;21.0;100.0
40013;BME280;37387;42.672;23.334;2023-07-20T02:15:25;940.9;;;20.8;100.0
40013;BME280;37387;42.672;23.334;2023-07-20T02:16:25;941.0;;;20.9;100.0
40013;BME280;37387;42.672;23.334;2023-07-20T02:18:25;941.0;;;21.0;100.0
40013;BME280;37387;42.672;23.334;2023-07-20T02:19:25;941.0;;;21.1;100.0
40013;BME280;37387;42.672;23.334;2023-07-20T02:20:26;941.0;;;21.2;100.0
40013;BME280;37387;42.672;23.334;2023-07-20T02:21:25;941.0;;;21.3;100.0
40013;BME280;37387;42.672;23.334;2023-07-20T02:24:25;941.1;;;21.4;100.0
40013;BME280;37387;42.672;23.334;2023-07-20T02:25:25;941.1;;;21.3;100.0
40013;BME280;37387;42.672;23.334;2023-07-20T02:26:25;941.0;;;21.2;100.0
40013;BME280;37387;42.672;23.334;2023-07-20T02:27:25;941.0;;;21.0;100.0
40013;BME280;37387;42.672;23.334;2023-07-20T02:28:25;941.0;;;20.9;100.0
40013;BME280;37387;42.672;23.334;2023-07-20T02:29:26;940.9;;;20.8;100.0
40013;BME280;37387;42.672;23.334;2023-07-20T02:35:27;941.0;;;20.9;100.0
40013;BME280;37387;42.672;23.334;2023-07-20T02:36:25;941.0;;;21.0;100.0
40013;BME280;37387;42.672;23.334;2023-07-20T02:38:25;940.9;;;21.1;100.0
40013;BME280;37387;42.672;23.334;2023-07-20T02:39:25;940.9;;;21.0;100.0
40013;BME280;37387;42.672;23.334;2023-07-20T02:41:25;940.9;;;20.9;100.0
40013;BME280;37387;42.672;23.334;2023-07-20T02:42:25;940.8;;;20.8;100.0
40013;BME280;37387;42.672;23.334;2023-07-20T02:43:25;940.8;;;20.6;100.0
40013;BME280;37387;42.672;23.334;2023-07-20T02:45:25;940.8;;;20.7;100.0
40013;BME280;37387;42.672;23.334;2023-07-20T02:46:25;940.7;;;20.8;100.0
40013;BME280;37387;42.672;23.334;2023-07-20T02:49:25;940.8;;;20.9;100.0
40013;BME280;37387;42.672;23.334;2023-07-20T02:50:25;940.8;;;20.8;100.0
40013;BME280;37387;42.672;23.334;2023-07-20T02:51:25;940.8;;;20.9;100.0
40013;BME280;37387;42.672;23.334;2023-07-20T02:53:25;940.7;;;21.0;100.0
40013;BME280;37387;42.672;23.334;2023-07-20T02:55:27;940.7;;;21.1;100.0
40013;BME280;37387;42.672;23.334;2023-07-20T02:56:25;940.7;;;21.2;100.0
40013;BME280;37387;42.672;23.334;2023-07-20T03:02:25;940.8;;;21.0;100.0
40013;BME280;37387;42.672;23.334;2023-07-20T03:03:25;940.8;;;20.9;100.0
40013;BME280;37387;42.672;23.334;2023-07-20T03:04:26;940.7;;;20.8;100.0
40013;BME280;37387;42.672;23.334;2023-07-20T03:07:26;940.8;;;20.9;100.0
40013;BME280;37387;42.672;23.334;2023-07-20T03:08:26;940.8;;;21.0;100.0
40013;BME280;37387;42.672;23.334;2023-07-20T03:10:25;940.8;;;20.9;100.0
40013;BME280;37387;42.672;23.334;2023-07-20T03:13:25;940.8;;;21.0;100.0
40013;BME280;37387;42.672;23.334;2023-07-20T03:15:25;940.8;;;20.9;100.0
40013;BME280;37387;42.672;23.334;2023-07-20T03:16:25;940.8;;;20.8;100.0
40013;BME280;37387;42.672;23.334;2023-07-20T03:17:26;940.8;;;20.9;100.0
40013;BME280;37387;42.672;23.334;2023-07-20T03:18:25;940.9;;;21.0;100.0
40013;BME280;37387;42.672;23.334;2023-07-20T03:19:25;940.9;;;21.1;100.0
40013;BME280;37387;42.672;23.334;2023-07-20T03:21:25;940.9;;;21.2;100.0
40013;BME280;37387;42.672;23.334;2023-07-20T03:22:25;940.9;;;21.3;100.0
40013;BME280;37387;42.672;23.334;2023-07-20T03:23:25;940.9;;;21.2;100.0
40013;BME280;37387;42.672;23.334;2023-07-20T03:24:25;940.9;;;21.0;100.0
40013;BME280;37387;42.672;23.334;2023-07-20T03:25:27;940.9;;;20.8;100.0
40013;BME280;37387;42.672;23.334;2023-07-20T03:26:27;940.9;;;20.9;100.0
40013;BME280;37387;42.672;23.334;2023-07-20T03:27:25;941.0;;;21.0;100.0
40013;BME280;37387;42.672;23.334;2023-07-20T03:29:25;941.0;;;21.2;100.0
40013;BME280;37387;42.672;23.334;2023-07-20T03:30:25;941.0;;;21.3;100.0
40013;BME280;37387;42.672;23.334;2023-07-20T03:31:25;941.0;;;21.5;100.0
40013;BME280;37387;42.672;23.334;2023-07-20T03:32:25;941.0;;;21.6;100.0
40013;BME280;37387;42.672;23.334;2023-07-20T03:33:26;941.0;;;21.8;100.0
40013;BME280;37387;42.672;23.334;2023-07-20T03:35:26;941.0;;;21.9;100.0
40013;BME280;37387;42.672;23.334;2023-07-20T03:36:25;941.0;;;22.0;100.0
40013;BME280;37387;42.672;23.334;2023-07-20T03:37:25;941.0;;;22.1;100.0
40013;BME280;37387;42.672;23.334;2023-07-20T03:38:25;941.0;;;22.0;100.0
40013;BME280;37387;42.672;23.334;2023-07-20T03:40:25;941.0;;;22.2;100.0
40013;BME280;37387;42.672;23.334;2023-07-20T03:41:25;941.1;;;22.4;100.0
40013;BME280;37387;42.672;23.334;2023-07-20T03:42:25;941.1;;;22.6;100.0
40013;BME280;37387;42.672;23.334;2023-07-20T03:43:26;941.1;;;22.7;100.0
40013;BME280;37387;42.672;23.334;2023-07-20T03:44:25;941.1;;;22.9;100.0
40013;BME280;37387;42.672;23.334;2023-07-20T03:45:25;941.1;;;23.0;100.0
40013;BME280;37387;42.672;23.334;2023-07-20T03:46:25;941.1;;;23.2;100.0
40013;BME280;37387;42.672;23.334;2023-07-20T03:47:27;941.1;;;23.3;100.0
40013;BME280;37387;42.672;23.334;2023-07-20T03:48:25;941.1;;;23.4;100.0
40013;BME280;37387;42.672;23.334;2023-07-20T03:49:25;941.1;;;23.6;100.0
40013;BME280;37387;42.672;23.334;2023-07-20T03:50:25;941.1;;;23.7;100.0
40013;BME280;37387;42.672;23.334;2023-07-20T03:51:25;941.2;;;23.8;100.0
40013;BME280;37387;42.672;23.334;2023-07-20T03:52:25;941.2;;;24.0;100.0
40013;BME280;37387;42.672;23.334;2023-07-20T03:53:25;941.2;;;24.1;100.0
40013;BME280;37387;42.672;23.334;2023-07-20T03:54:27;941.1;;;24.3;100.0
40013;BME280;37387;42.672;23.334;2023-07-20T03:55:25;941.2;;;24.5;100.0
40013;BME280;37387;42.672;23.334;2023-07-20T03:56:25;941.1;;;24.8;100.0
40013;BME280;37387;42.672;23.334;2023-07-20T03:58:25;941.2;;;24.6;96.9
40013;BME280;37387;42.672;23.334;2023-07-20T03:59:25;941.2;;;24.8;96.9
40013;BME280;37387;42.672;23.334;2023-07-20T04:00:25;941.1;;;24.9;96.3
40013;BME280;37387;42.672;23.334;2023-07-20T04:01:25;941.2;;;25.3;96.0
40013;BME280;37387;42.672;23.334;2023-07-20T04:02:25;941.2;;;25.6;88.1
40013;BME280;37387;42.672;23.334;2023-07-20T04:03:25;941.3;;;25.9;88.1
40013;BME280;37387;42.672;23.334;2023-07-20T04:04:25;941.3;;;26.2;84.7
40013;BME280;37387;42.672;23.334;2023-07-20T04:05:27;941.2;;;26.3;80.7
40013;BME280;37387;42.672;23.334;2023-07-20T04:06:25;941.2;;;26.5;80.7
40013;BME280;37387;42.672;23.334;2023-07-20T04:07:26;941.2;;;26.3;78.7
40013;BME280;37387;42.672;23.334;2023-07-20T04:08:25;941.2;;;26.2;80.4
40013;BME280;37387;42.672;23.334;2023-07-20T04:09:25;941.2;;;26.4;80.4
40013;BME280;37387;42.672;23.334;2023-07-20T04:10:25;941.1;;;26.3;78.5
40013;BME280;37387;42.672;23.334;2023-07-20T04:11:25;941.1;;;26.5;78.5
40013;BME280;37387;42.672;23.334;2023-07-20T04:12:25;941.2;;;27.0;77.7
40013;BME280;37387;42.672;23.334;2023-07-20T04:14:25;941.1;;;27.1;72.6
40013;BME280;37387;42.672;23.334;2023-07-20T04:15:25;941.2;;;27.0;72.7
40013;BME280;37387;42.672;23.334;2023-07-20T04:16:25;941.2;;;26.6;75.7
40013;BME280;37387;42.672;23.334;2023-07-20T04:17:25;941.2;;;26.9;75.7
40013;BME280;37387;42.672;23.334;2023-07-20T04:18:25;941.2;;;27.1;74.7
40013;BME280;37387;42.672;23.334;2023-07-20T04:19:25;941.2;;;27.5;70.9
40013;BME280;37387;42.672;23.334;2023-07-20T04:22:27;941.1;;;27.7;69.7
40013;BME280;37387;42.672;23.334;2023-07-20T04:23:25;941.1;;;28.1;69.7
40013;BME280;37387;42.672;23.334;2023-07-20T04:24:25;941.1;;;28.4;66.1
40013;BME280;37387;42.672;23.334;2023-07-20T04:25:25;941.1;;;28.7;66.1
40013;BME280;37387;42.672;23.334;2023-07-20T04:26:26;941.1;;;29.0;64.8
40013;BME280;37387;42.672;23.334;2023-07-20T04:27:25;941.1;;;28.8;64.7
40013;BME280;37387;42.672;23.334;2023-07-20T04:28:27;941.1;;;28.3;66.6
40013;BME280;37387;42.672;23.334;2023-07-20T04:29:25;941.1;;;27.7;66.6
40013;BME280;37387;42.672;23.334;2023-07-20T04:30:25;941.1;;;27.9;68.9
40013;BME280;37387;42.672;23.334;2023-07-20T04:31:25;941.1;;;28.1;68.9
40013;BME280;37387;42.672;23.334;2023-07-20T04:32:25;941.1;;;28.5;67.8
40013;BME280;37387;42.672;23.334;2023-07-20T04:33:25;941.1;;;29.1;65.4
40013;BME280;37387;42.672;23.334;2023-07-20T04:34:25;941.1;;;28.4;64.9
40013;BME280;37387;42.672;23.334;2023-07-20T04:36:25;941.1;;;29.3;61.0
40013;BME280;37387;42.672;23.334;2023-07-20T04:38:25;941.1;;;28.5;61.1
40013;BME280;37387;42.672;23.334;2023-07-20T04:39:25;941.1;;;29.2;64.3
40013;BME280;37387;42.672;23.334;2023-07-20T04:41:25;941.0;;;29.5;61.3
40013;BME280;37387;42.672;23.334;2023-07-20T04:42:25;941.0;;;30.0;58.3
40013;BME280;37387;42.672;23.334;2023-07-20T04:44:25;941.0;;;29.9;58.6
40013;BME280;37387;42.672;23.334;2023-07-20T04:45:26;941.0;;;30.5;56.4
40013;BME280;37387;42.672;23.334;2023-07-20T04:46:25;941.0;;;29.9;58.7
40013;BME280;37387;42.672;23.334;2023-07-20T04:47:25;941.0;;;30.1;58.7
40013;BME280;37387;42.672;23.334;2023-07-20T04:48:25;941.1;;;30.4;56.9
40013;BME280;37387;42.672;23.334;2023-07-20T04:49:25;941.1;;;30.8;56.9
40013;BME280;37387;42.672;23.334;2023-07-20T04:50:26;941.1;;;31.1;54.1
40013;BME280;37387;42.672;23.334;2023-07-20T04:51:26;941.1;;;31.5;54.1
40013;BME280;37387;42.672;23.334;2023-07-20T04:52:25;941.1;;;31.3;52.5
40013;BME280;37387;42.672;23.334;2023-07-20T04:53:25;941.1;;;31.2;52.9
40013;BME280;37387;42.672;23.334;2023-07-20T04:54:25;941.1;;;30.9;52.9
40013;BME280;37387;42.672;23.334;2023-07-20T04:55:25;941.1;;;31.0;54.3
40013;BME280;37387;42.672;23.334;2023-07-20T04:58:25;941.0;;;30.7;54.5
40013;BME280;37387;42.672;23.334;2023-07-20T04:59:25;941.0;;;30.8;54.5
40013;BME280;37387;42.672;23.334;2023-07-20T05:00:27;941.0;;;30.6;54.5
40013;BME280;37387;42.672;23.334;2023-07-20T05:01:25;941.0;;;31.3;54.5
40013;BME280;37387;42.672;23.334;2023-07-20T05:02:25;941.0;;;31.0;53.0
40013;BME280;37387;42.672;23.334;2023-07-20T05:03:27;941.1;;;31.7;53.2
40013;BME280;37387;42.672;23.334;2023-07-20T05:04:25;941.0;;;30.4;55.2
40013;BME280;37387;42.672;23.334;2023-07-20T05:05:25;941.0;;;28.3;55.2
40013;BME280;37387;42.672;23.334;2023-07-20T05:06:25;941.0;;;27.4;62.2
40013;BME280;37387;42.672;23.334;2023-07-20T05:07:25;941.0;;;27.5;68.9
40013;BME280;37387;42.672;23.334;2023-07-20T05:08:27;941.0;;;28.1;65.2
40013;BME280;37387;42.672;23.334;2023-07-20T05:09:25;941.0;;;28.3;64.2
40013;BME280;37387;42.672;23.334;2023-07-20T05:10:25;941.0;;;29.2;60.4
40013;BME280;37387;42.672;23.334;2023-07-20T05:11:25;941.0;;;28.9;60.4
40013;BME280;37387;42.672;23.334;2023-07-20T05:12:25;941.0;;;29.4;60.6
40013;BME280;37387;42.672;23.334;2023-07-20T05:13:25;941.0;;;30.9;54.2
40013;BME280;37387;42.672;23.334;2023-07-20T05:14:25;941.0;;;31.9;54.2
40013;BME280;37387;42.672;23.334;2023-07-20T05:15:27;941.1;;;31.5;51.8
40013;BME280;37387;42.672;23.334;2023-07-20T05:16:25;941.2;;;31.2;51.8
40013;BME280;37387;42.672;23.334;2023-07-20T05:17:26;941.2;;;31.5;51.3
40013;BME280;37387;42.672;23.334;2023-07-20T05:18:25;941.2;;;31.9;51.3
40013;BME280;37387;42.672;23.334;2023-07-20T05:19:25;941.2;;;32.7;50.9
40013;BME280;37387;42.672;23.334;2023-07-20T05:20:25;941.2;;;32.0;47.7
40013;BME280;37387;42.672;23.334;2023-07-20T05:21:25;941.2;;;32.4;48.9
40013;BME280;37387;42.672;23.334;2023-07-20T05:22:27;941.2;;;32.7;47.3
40013;BME280;37387;42.672;23.334;2023-07-20T05:23:25;941.1;;;31.8;47.3
40013;BME280;37387;42.672;23.334;2023-07-20T05:24:25;941.1;;;32.0;49.0
40013;BME280;37387;42.672;23.334;2023-07-20T05:26:25;941.1;;;32.2;49.5
40013;BME280;37387;42.672;23.334;2023-07-20T05:27:25;941.2;;;32.6;48.0
40013;BME280;37387;42.672;23.334;2023-07-20T05:28:25;941.2;;;32.0;48.0
40013;BME280;37387;42.672;23.334;2023-07-20T05:29:25;941.2;;;32.6;48.8
40013;BME280;37387;42.672;23.334;2023-07-20T05:30:25;941.1;;;33.2;45.5
40013;BME280;37387;42.672;23.334;2023-07-20T05:31:25;941.2;;;34.1;45.5
40013;BME280;37387;42.672;23.334;2023-07-20T05:33:25;941.2;;;33.4;45.3
40013;BME280;37387;42.672;23.334;2023-07-20T05:34:25;941.2;;;33.3;45.3
40013;BME280;37387;42.672;23.334;2023-07-20T05:36:25;941.3;;;33.4;45.3
40013;BME280;37387;42.672;23.334;2023-07-20T05:37:26;941.2;;;32.2;47.6
40013;BME280;37387;42.672;23.334;2023-07-20T05:38:25;941.2;;;32.3;47.6
40013;BME280;37387;42.672;23.334;2023-07-20T05:39:25;941.2;;;33.3;48.4
40013;BME280;37387;42.672;23.334;2023-07-20T05:40:25;941.2;;;34.0;46.6
40013;BME280;37387;42.672;23.334;2023-07-20T05:41:25;941.2;;;34.4;45.1
40013;BME280;37387;42.672;23.334;2023-07-20T05:42:25;941.2;;;34.5;43.9
40013;BME280;37387;42.672;23.334;2023-07-20T05:43:25;941.3;;;34.3;43.6
40013;BME280;37387;42.672;23.334;2023-07-20T05:44:25;941.3;;;34.7;40.8
40013;BME280;37387;42.672;23.334;2023-07-20T05:45:25;941.3;;;34.5;40.8
40013;BME280;37387;42.672;23.334;2023-07-20T05:46:25;941.3;;;34.8;41.5
40013;BME280;37387;42.672;23.334;2023-07-20T05:48:25;941.4;;;34.9;41.4
40013;BME280;37387;42.672;23.334;2023-07-20T05:49:25;941.4;;;33.9;41.1
40013;BME280;37387;42.672;23.334;2023-07-20T05:50:25;941.4;;;34.1;43.3
40013;BME280;37387;42.672;23.334;2023-07-20T05:51:25;941.4;;;33.5;44.5
40013;BME280;37387;42.672;23.334;2023-07-20T05:52:25;941.4;;;33.4;45.5
40013;BME280;37387;42.672;23.334;2023-07-20T05:53:25;941.4;;;33.1;45.5
40013;BME280;37387;42.672;23.334;2023-07-20T05:55:25;941.3;;;33.0;46.4
40013;BME280;37387;42.672;23.334;2023-07-20T05:56:25;941.4;;;32.0;49.0
40013;BME280;37387;42.672;23.334;2023-07-20T05:57:25;941.4;;;32.3;49.0
40013;BME280;37387;42.672;23.334;2023-07-20T05:58:25;941.4;;;31.8;49.0
40013;BME280;37387;42.672;23.334;2023-07-20T05:59:26;941.3;;;31.6;49.5
40013;BME280;37387;42.672;23.334;2023-07-20T06:00:25;941.3;;;31.5;49.6
40013;BME280;37387;42.672;23.334;2023-07-20T06:01:25;941.3;;;31.9;49.9
40013;BME280;37387;42.672;23.334;2023-07-20T06:02:25;941.2;;;32.1;49.1
40013;BME280;37387;42.672;23.334;2023-07-20T06:03:25;941.2;;;32.4;48.0
40013;BME280;37387;42.672;23.334;2023-07-20T06:04:25;941.2;;;32.5;47.2
40013;BME280;37387;42.672;23.334;2023-07-20T06:05:25;941.3;;;32.8;47.2
40013;BME280;37387;42.672;23.334;2023-07-20T06:06:25;941.2;;;33.3;45.1
40013;BME280;37387;42.672;23.334;2023-07-20T06:07:25;941.2;;;32.9;45.1
40013;BME280;37387;42.672;23.334;2023-07-20T06:08:25;941.3;;;32.7;45.4
40013;BME280;37387;42.672;23.334;2023-07-20T06:09:26;941.3;;;32.4;46.5
40013;BME280;37387;42.672;23.334;2023-07-20T06:10:25;941.3;;;31.8;46.5
40013;BME280;37387;42.672;23.334;2023-07-20T06:11:25;941.3;;;31.6;47.1
40013;BME280;37387;42.672;23.334;2023-07-20T06:12:25;941.3;;;31.9;47.5
40013;BME280;37387;42.672;23.334;2023-07-20T06:14:25;941.2;;;30.6;50.0
40013;BME280;37387;42.672;23.334;2023-07-20T06:15:26;941.1;;;30.8;50.0
40013;BME280;37387;42.672;23.334;2023-07-20T06:16:25;941.2;;;31.7;50.5
40013;BME280;37387;42.672;23.334;2023-07-20T06:17:25;941.3;;;32.0;47.1
40013;BME280;37387;42.672;23.334;2023-07-20T06:18:25;941.3;;;32.8;47.1
40013;BME280;37387;42.672;23.334;2023-07-20T06:19:25;941.2;;;32.6;45.4
40013;BME280;37387;42.672;23.334;2023-07-20T06:20:27;941.1;;;33.2;44.2
40013;BME280;37387;42.672;23.334;2023-07-20T06:21:25;941.1;;;33.5;44.2
40013;BME280;37387;42.672;23.334;2023-07-20T06:22:25;941.1;;;33.1;44.2
40013;BME280;37387;42.672;23.334;2023-07-20T06:23:25;941.1;;;32.9;44.2
40013;BME280;37387;42.672;23.334;2023-07-20T06:24:25;941.1;;;33.6;43.2
40013;BME280;37387;42.672;23.334;2023-07-20T06:25:25;941.0;;;33.9;42.2
40013;BME280;37387;42.672;23.334;2023-07-20T06:26:25;941.0;;;33.7;42.6
40013;BME280;37387;42.672;23.334;2023-07-20T06:27:26;941.0;;;33.4;43.7
40013;BME280;37387;42.672;23.334;2023-07-20T06:28:25;941.0;;;32.8;43.7
40013;BME280;37387;42.672;23.334;2023-07-20T06:29:25;940.9;;;33.0;44.6
40013;BME280;37387;42.672;23.334;2023-07-20T06:30:25;941.0;;;33.5;44.6
40013;BME280;37387;42.672;23.334;2023-07-20T06:31:25;941.0;;;33.3;44.2
40013;BME280;37387;42.672;23.334;2023-07-20T06:33:25;941.0;;;33.4;43.7
40013;BME280;37387;42.672;23.334;2023-07-20T06:34:25;941.0;;;32.9;43.7
40013;BME280;37387;42.672;23.334;2023-07-20T06:35:25;941.0;;;31.9;44.7
40013;BME280;37387;42.672;23.334;2023-07-20T06:36:25;941.0;;;32.1;46.8
40013;BME280;37387;42.672;23.334;2023-07-20T06:37:25;941.0;;;33.0;45.6
40013;BME280;37387;42.672;23.334;2023-07-20T06:38:25;941.0;;;33.6;44.3
40013;BME280;37387;42.672;23.334;2023-07-20T06:39:26;941.0;;;33.5;44.5
40013;BME280;37387;42.672;23.334;2023-07-20T06:40:25;941.0;;;33.0;46.2
40013;BME280;37387;42.672;23.334;2023-07-20T06:41:25;941.0;;;33.5;46.2
40013;BME280;37387;42.672;23.334;2023-07-20T06:43:25;941.0;;;33.9;45.2
40013;BME280;37387;42.672;23.334;2023-07-20T06:44:25;941.0;;;34.3;44.2
40013;BME280;37387;42.672;23.334;2023-07-20T06:45:25;941.0;;;34.7;43.4
40013;BME280;37387;42.672;23.334;2023-07-20T06:46:26;941.0;;;34.3;42.4
40013;BME280;37387;42.672;23.334;2023-07-20T06:47:25;941.0;;;33.9;42.4
40013;BME280;37387;42.672;23.334;2023-07-20T06:48:25;941.0;;;34.0;43.4
40013;BME280;37387;42.672;23.334;2023-07-20T06:49:26;941.0;;;34.6;43.0
40013;BME280;37387;42.672;23.334;2023-07-20T06:50:25;941.1;;;34.7;42.1
40013;BME280;37387;42.672;23.334;2023-07-20T06:51:25;941.1;;;34.1;41.5
40013;BME280;37387;42.672;23.334;2023-07-20T06:52:25;941.0;;;32.7;42.4
40013;BME280;37387;42.672;23.334;2023-07-20T06:54:26;941.0;;;33.0;46.0
40013;BME280;37387;42.672;23.334;2023-07-20T06:55:25;941.0;;;33.7;46.0
40013;BME280;37387;42.672;23.334;2023-07-20T06:56:25;941.0;;;34.2;44.9
40013;BME280;37387;42.672;23.334;2023-07-20T06:57:25;941.1;;;34.6;43.6
40013;BME280;37387;42.672;23.334;2023-07-20T06:58:25;941.1;;;34.9;42.7
40013;BME280;37387;42.672;23.334;2023-07-20T07:00:25;941.2;;;34.4;42.8
40013;BME280;37387;42.672;23.334;2023-07-20T07:02:25;941.2;;;34.3;43.6
40013;BME280;37387;42.672;23.334;2023-07-20T07:03:25;941.3;;;33.5;45.0
40013;BME280;37387;42.672;23.334;2023-07-20T07:04:25;941.3;;;33.8;45.0
40013;BME280;37387;42.672;23.334;2023-07-20T07:05:25;941.4;;;34.8;44.8
40013;BME280;37387;42.672;23.334;2023-07-20T07:06:26;941.3;;;35.5;40.4
40013;BME280;37387;42.672;23.334;2023-07-20T07:07:25;941.3;;;35.9;40.4
40013;BME280;37387;42.672;23.334;2023-07-20T07:09:25;941.3;;;35.0;39.6
40013;BME280;37387;42.672;23.334;2023-07-20T07:10:25;941.3;;;34.5;41.2
40013;BME280;37387;42.672;23.334;2023-07-20T07:11:25;941.3;;;34.4;42.6
40013;BME280;37387;42.672;23.334;2023-07-20T07:12:25;941.3;;;33.0;45.7
40013;BME280;37387;42.672;23.334;2023-07-20T07:13:25;941.3;;;33.2;45.7
40013;BME280;37387;42.672;23.334;2023-07-20T07:14:25;941.3;;;33.1;46.1
40013;BME280;37387;42.672;23.334;2023-07-20T07:15:25;941.4;;;32.7;47.3
40013;BME280;37387;42.672;23.334;2023-07-20T07:16:25;941.4;;;32.0;47.3
40013;BME280;37387;42.672;23.334;2023-07-20T07:17:25;941.5;;;31.5;49.0
40013;BME280;37387;42.672;23.334;2023-07-20T07:18:25;941.5;;;31.3;50.2
40013;BME280;37387;42.672;23.334;2023-07-20T07:20:25;941.6;;;31.0;51.2
40013;BME280;37387;42.672;23.334;2023-07-20T07:21:25;941.6;;;30.9;51.8
40013;BME280;37387;42.672;23.334;2023-07-20T07:22:25;941.6;;;30.2;52.5
40013;BME280;37387;42.672;23.334;2023-07-20T07:23:25;941.7;;;30.7;54.9
40013;BME280;37387;42.672;23.334;2023-07-20T07:24:25;941.7;;;31.2;53.2
40013;BME280;37387;42.672;23.334;2023-07-20T07:25:26;941.7;;;31.9;53.2